Time;durP1;ratioP1;P1;durP2;ratioP2;P2;SDS_P1;SDS_P2;PMS_P1;PMS_P2;Temp;Humidity;BMP_temperature;BMP_pressure;BME280_temperature;BME280_humidity;BME280_pressure;Samples;Min_cycle;Max_cycle;Signal;HPM_P1;HPM_P2
2024/03/31 00:02:12;;;;;;;;;;;23.70;38.80;;;;;;5074316;28;19925;-57
2024/03/31 00:04:40;;;;;;;;;;;23.70;38.90;;;;;;5074516;28;19924;-58
2024/03/31 00:07:06;;;;;;;;;;;23.70;38.90;;;;;;5074849;28;20273;-57
2024/03/31 00:09:32;;;;;;;;;;;23.70;38.90;;;;;;5075010;28;19928;-57
2024/03/31 00:11:58;;;;;;;;;;;23.70;38.90;;;;;;5074665;28;20285;-57
2024/03/31 00:14:25;;;;;;;;;;;23.70;38.90;;;;;;5074715;28;20381;-57
2024/03/31 00:16:51;;;;;;;;;;;23.70;38.90;;;;;;5057808;28;20389;-58
2024/03/31 00:19:16;;;;;;;;;;;23.60;38.90;;;;;;5074572;28;19925;-58
2024/03/31 00:21:42;;;;;;;;;;;23.60;39.00;;;;;;5074135;28;19974;-58
2024/03/31 00:24:08;;;;;;;;;;;23.60;39.00;;;;;;5074034;28;19982;-57
2024/03/31 00:26:34;;;;;;;;;;;23.60;39.20;;;;;;5074425;28;20389;-57
2024/03/31 00:29:00;;;;;;;;;;;23.60;39.10;;;;;;5073833;28;19932;-57
2024/03/31 00:31:26;;;;;;;;;;;23.60;39.10;;;;;;5073857;28;19967;-57
2024/03/31 00:33:52;;;;;;;;;;;23.60;39.10;;;;;;5074419;28;20015;-57
2024/03/31 00:36:17;;;;;;;;;;;23.60;39.20;;;;;;5074131;28;19924;-57
2024/03/31 00:38:43;;;;;;;;;;;23.60;39.20;;;;;;5074176;28;19928;-58
2024/03/31 00:41:09;;;;;;;;;;;23.60;39.20;;;;;;5057185;28;19928;-57
2024/03/31 00:43:35;;;;;;;;;;;23.60;39.20;;;;;;5073664;28;19929;-57
2024/03/31 00:46:01;;;;;;;;;;;23.60;39.20;;;;;;5073737;28;19925;-57
2024/03/31 00:48:27;;;;;;;;;;;23.60;39.10;;;;;;5073611;28;19970;-57
2024/03/31 00:50:52;;;;;;;;;;;23.60;39.70;;;;;;5073624;28;19924;-57
2024/03/31 00:53:18;;;;;;;;;;;23.60;39.10;;;;;;5073590;28;19925;-57
2024/03/31 00:55:44;;;;;;;;;;;23.60;39.10;;;;;;5073680;28;19939;-57
2024/03/31 00:58:10;;;;;;;;;;;23.60;39.10;;;;;;5073495;28;19983;-57
2024/03/31 01:00:36;;;;;;;;;;;23.60;39.10;;;;;;5073270;28;19936;-57
2024/03/31 01:03:02;;;;;;;;;;;23.60;39.10;;;;;;5073094;28;19931;-58
2024/03/31 01:05:28;;;;;;;;;;;23.60;39.10;;;;;;5073504;28;19948;-57
2024/03/31 01:07:54;;;;;;;;;;;23.60;39.10;;;;;;5073123;28;19928;-58
2024/03/31 01:10:20;;;;;;;;;;;23.60;39.10;;;;;;5073179;28;19974;-57
2024/03/31 01:12:46;;;;;;;;;;;23.60;39.60;;;;;;5073073;28;20370;-57
2024/03/31 01:15:12;;;;;;;;;;;23.60;39.10;;;;;;5073186;28;20451;-57
2024/03/31 01:17:38;;;;;;;;;;;23.60;39.10;;;;;;5073020;28;19924;-57
2024/03/31 01:20:05;;;;;;;;;;;23.60;39.10;;;;;;5073062;28;19932;-57
2024/03/31 01:22:32;;;;;;;;;;;23.60;39.10;;;;;;5073300;28;19986;-57
2024/03/31 01:24:58;;;;;;;;;;;23.60;39.10;;;;;;5072840;28;19924;-57
2024/03/31 01:27:24;;;;;;;;;;;23.60;39.10;;;;;;5073088;28;19969;-57
2024/03/31 01:29:51;;;;;;;;;;;23.60;39.20;;;;;;5072880;28;19924;-57
2024/03/31 01:32:16;;;;;;;;;;;23.60;39.20;;;;;;5073017;28;20321;-57
2024/03/31 01:34:44;;;;;;;;;;;23.60;39.20;;;;;;5072744;28;19950;-58
2024/03/31 01:37:10;;;;;;;;;;;23.50;39.20;;;;;;5072776;28;19940;-57
2024/03/31 01:39:36;;;;;;;;;;;23.50;39.20;;;;;;5072864;28;20011;-57
2024/03/31 01:42:02;;;;;;;;;;;23.50;39.30;;;;;;5072209;28;19924;-57
2024/03/31 01:44:28;;;;;;;;;;;23.50;39.30;;;;;;5072491;28;19924;-57
2024/03/31 01:46:53;;;;;;;;;;;23.40;39.30;;;;;;5072909;28;19928;-58
2024/03/31 01:49:19;;;;;;;;;;;23.50;39.30;;;;;;5072448;28;20035;-57
2024/03/31 01:51:45;;;;;;;;;;;23.40;39.30;;;;;;5072714;28;19981;-56
2024/03/31 01:54:11;;;;;;;;;;;23.40;39.90;;;;;;5072799;28;19980;-57
2024/03/31 01:56:37;;;;;;;;;;;23.40;39.30;;;;;;5072376;28;19931;-57
2024/03/31 01:59:03;;;;;;;;;;;23.50;39.40;;;;;;5072653;28;19951;-57
2024/03/31 02:01:29;;;;;;;;;;;23.50;39.40;;;;;;5072282;28;19928;-57
2024/03/31 02:03:55;;;;;;;;;;;23.50;39.40;;;;;;5072209;28;19978;-57
2024/03/31 02:06:21;;;;;;;;;;;23.50;39.40;;;;;;5072527;28;20392;-57
2024/03/31 02:08:47;;;;;;;;;;;23.50;39.40;;;;;;5072361;28;20287;-57
2024/03/31 02:11:13;;;;;;;;;;;23.50;39.40;;;;;;5072435;28;19931;-57
2024/03/31 02:13:39;;;;;;;;;;;23.50;39.40;;;;;;5072546;28;19924;-57
2024/03/31 02:16:05;;;;;;;;;;;23.50;39.40;;;;;;5072142;28;20380;-57
2024/03/31 02:18:30;;;;;;;;;;;23.40;39.30;;;;;;5072173;28;19978;-57
2024/03/31 02:20:56;;;;;;;;;;;23.40;39.30;;;;;;5072046;28;19931;-57
2024/03/31 02:23:22;;;;;;;;;;;23.40;39.30;;;;;;5072308;28;19980;-57
2024/03/31 02:25:48;;;;;;;;;;;23.50;39.40;;;;;;5072206;28;20294;-57
2024/03/31 02:28:14;;;;;;;;;;;23.50;39.30;;;;;;5072394;28;19930;-57
2024/03/31 02:30:40;;;;;;;;;;;23.40;39.30;;;;;;5072052;28;19924;-57
2024/03/31 02:33:06;;;;;;;;;;;23.50;39.40;;;;;;5072231;28;19925;-57
2024/03/31 02:35:32;;;;;;;;;;;23.40;39.60;;;;;;5072318;28;20385;-57
2024/03/31 02:37:58;;;;;;;;;;;23.40;39.40;;;;;;5055583;28;19947;-57
2024/03/31 02:40:24;;;;;;;;;;;23.40;39.30;;;;;;5072183;28;20354;-57
2024/03/31 02:42:50;;;;;;;;;;;23.40;39.40;;;;;;5072124;28;20359;-57
2024/03/31 02:45:16;;;;;;;;;;;23.40;39.50;;;;;;5071892;28;20332;-57
2024/03/31 02:47:41;;;;;;;;;;;23.40;39.40;;;;;;5072089;28;19925;-57
2024/03/31 02:50:07;;;;;;;;;;;23.40;39.50;;;;;;5071873;28;20405;-57
2024/03/31 02:52:33;;;;;;;;;;;23.40;39.50;;;;;;5073750;28;19928;-57
2024/03/31 02:54:59;;;;;;;;;;;23.40;39.60;;;;;;5075913;28;19925;-58
2024/03/31 02:57:25;;;;;;;;;;;23.40;39.60;;;;;;5075773;28;19931;-57
2024/03/31 02:59:51;;;;;;;;;;;23.40;39.60;;;;;;5075637;28;20469;-57
2024/03/31 03:02:16;;;;;;;;;;;23.40;39.60;;;;;;5058955;28;19932;-57
2024/03/31 03:04:42;;;;;;;;;;;23.40;39.60;;;;;;5075541;28;19970;-57
2024/03/31 03:07:08;;;;;;;;;;;23.30;39.60;;;;;;5075602;28;20002;-58
2024/03/31 03:09:34;;;;;;;;;;;23.40;39.60;;;;;;5075527;28;19939;-57
2024/03/31 03:12:00;;;;;;;;;;;23.40;39.60;;;;;;5075468;28;19924;-57
2024/03/31 03:14:26;;;;;;;;;;;23.40;39.60;;;;;;5075403;28;19925;-57
2024/03/31 03:16:52;;;;;;;;;;;23.40;39.60;;;;;;5075399;28;19995;-57
2024/03/31 03:19:17;;;;;;;;;;;23.40;39.60;;;;;;5075737;28;19928;-57
2024/03/31 03:21:43;;;;;;;;;;;23.40;39.60;;;;;;5075379;28;20001;-57
2024/03/31 03:24:09;;;;;;;;;;;23.40;39.60;;;;;;5075012;28;19986;-58
2024/03/31 03:26:35;;;;;;;;;;;23.40;39.50;;;;;;5075227;28;19924;-60
2024/03/31 03:29:03;;;;;;;;;;;23.40;39.50;;;;;;5074563;28;21382;-60
2024/03/31 03:31:29;;;;;;;;;;;23.40;39.50;;;;;;5075363;28;20014;-60
2024/03/31 03:33:55;;;;;;;;;;;23.40;39.60;;;;;;5075178;28;19925;-60
2024/03/31 03:36:21;;;;;;;;;;;23.40;39.50;;;;;;5075190;28;19942;-60
2024/03/31 03:38:47;;;;;;;;;;;23.40;39.50;;;;;;5075410;28;19924;-60
2024/03/31 03:41:13;;;;;;;;;;;23.40;39.60;;;;;;5074963;28;20506;-60
2024/03/31 03:43:38;;;;;;;;;;;23.40;39.50;;;;;;5074682;28;19932;-59
2024/03/31 03:46:05;;;;;;;;;;;23.40;39.50;;;;;;5074822;28;19977;-59
2024/03/31 03:48:30;;;;;;;;;;;23.40;39.60;;;;;;5075298;28;19924;-60
2024/03/31 03:51:00;;;;;;;;;;;23.40;39.60;;;;;;5074702;28;19978;-60
2024/03/31 03:53:26;;;;;;;;;;;23.40;39.60;;;;;;5074833;28;19924;-60
2024/03/31 03:55:51;;;;;;;;;;;23.30;39.50;;;;;;5075017;28;19931;-59
2024/03/31 03:58:17;;;;;;;;;;;23.30;39.60;;;;;;5074615;28;19931;-59
2024/03/31 04:00:43;;;;;;;;;;;23.30;39.60;;;;;;5074946;28;19928;-59
2024/03/31 04:03:09;;;;;;;;;;;23.30;39.70;;;;;;5073980;28;20296;-59
2024/03/31 04:05:35;;;;;;;;;;;23.30;39.70;;;;;;5074165;28;19924;-59
2024/03/31 04:08:01;;;;;;;;;;;23.30;39.70;;;;;;5074880;28;19995;-60
2024/03/31 04:10:27;;;;;;;;;;;23.30;39.70;;;;;;5074682;28;20021;-59
2024/03/31 04:12:53;;;;;;;;;;;23.30;39.70;;;;;;5057987;28;19931;-59
2024/03/31 04:15:19;;;;;;;;;;;23.30;39.70;;;;;;5073576;28;20301;-60
2024/03/31 04:17:45;;;;;;;;;;;23.30;39.70;;;;;;5074214;28;19933;-59
2024/03/31 04:20:11;;;;;;;;;;;23.30;39.80;;;;;;5074348;28;19940;-60
2024/03/31 04:22:36;;;;;;;;;;;23.30;39.70;;;;;;5074549;28;19925;-59
2024/03/31 04:25:03;;;;;;;;;;;23.30;39.70;;;;;;5073732;28;19924;-59
2024/03/31 04:27:29;;;;;;;;;;;23.30;39.70;;;;;;5074021;28;19924;-59
2024/03/31 04:29:55;;;;;;;;;;;23.30;39.70;;;;;;5074274;28;19924;-60
2024/03/31 04:32:20;;;;;;;;;;;23.30;39.70;;;;;;5073873;28;19932;-60
2024/03/31 04:34:46;;;;;;;;;;;23.30;39.70;;;;;;5074043;28;19978;-59
2024/03/31 04:37:12;;;;;;;;;;;23.30;40.20;;;;;;5074299;28;19925;-59
2024/03/31 04:39:38;;;;;;;;;;;23.30;39.50;;;;;;5073743;28;19924;-60
2024/03/31 04:42:04;;;;;;;;;;;23.30;38.90;;;;;;5074095;28;19986;-59
2024/03/31 04:44:30;;;;;;;;;;;23.40;38.60;;;;;;5073940;28;19937;-60
2024/03/31 04:46:56;;;;;;;;;;;23.30;38.20;;;;;;5074032;28;19975;-59
2024/03/31 04:49:22;;;;;;;;;;;23.40;38.00;;;;;;5074107;28;19931;-59
2024/03/31 04:51:48;;;;;;;;;;;23.40;37.80;;;;;;5056787;28;19924;-60
2024/03/31 04:54:14;;;;;;;;;;;23.40;37.50;;;;;;5073552;28;19936;-59
2024/03/31 04:56:40;;;;;;;;;;;23.40;37.30;;;;;;5073869;28;19924;-60
2024/03/31 04:59:07;;;;;;;;;;;23.40;37.30;;;;;;5073849;28;20385;-59
2024/03/31 05:01:33;;;;;;;;;;;23.40;37.20;;;;;;5073274;28;19924;-60
2024/03/31 05:03:59;;;;;;;;;;;23.40;37.10;;;;;;5056500;28;19925;-60
2024/03/31 05:06:25;;;;;;;;;;;23.40;36.90;;;;;;5073248;28;19928;-59
2024/03/31 05:08:51;;;;;;;;;;;23.40;36.90;;;;;;5073308;28;19929;-59
2024/03/31 05:11:17;;;;;;;;;;;23.40;36.70;;;;;;5073775;28;19975;-60
2024/03/31 05:13:42;;;;;;;;;;;23.40;36.60;;;;;;5073171;28;19930;-59
2024/03/31 05:16:09;;;;;;;;;;;23.50;36.50;;;;;;5072266;28;19960;-59
2024/03/31 05:18:35;;;;;;;;;;;23.40;36.30;;;;;;5073216;28;20393;-60
2024/03/31 05:21:03;;;;;;;;;;;23.50;36.10;;;;;;5073210;28;19972;-59
2024/03/31 05:23:29;;;;;;;;;;;23.50;36.00;;;;;;5072840;28;20378;-60
2024/03/31 05:25:55;;;;;;;;;;;23.50;35.80;;;;;;5072960;28;19974;-59
2024/03/31 05:28:22;;;;;;;;;;;23.50;35.60;;;;;;5072986;28;19936;-59
2024/03/31 05:30:47;;;;;;;;;;;23.50;35.50;;;;;;5073155;28;20336;-59
2024/03/31 05:33:14;;;;;;;;;;;23.60;35.30;;;;;;5072874;28;19928;-59
2024/03/31 05:35:40;;;;;;;;;;;23.60;35.20;;;;;;5073126;28;19924;-59
2024/03/31 05:38:07;;;;;;;;;;;23.60;35.00;;;;;;5072618;28;20396;-59
2024/03/31 05:40:33;;;;;;;;;;;23.70;34.90;;;;;;5072709;28;19925;-60
2024/03/31 05:42:59;;;;;;;;;;;23.70;34.70;;;;;;5072619;28;20373;-59
2024/03/31 05:45:25;;;;;;;;;;;23.70;34.70;;;;;;5072648;28;19925;-59
2024/03/31 05:47:50;;;;;;;;;;;23.70;34.50;;;;;;5072535;28;19925;-59
2024/03/31 05:50:16;;;;;;;;;;;23.70;34.40;;;;;;5072787;28;19924;-60
2024/03/31 05:52:42;;;;;;;;;;;23.70;34.30;;;;;;5072730;28;20358;-59
2024/03/31 05:55:08;;;;;;;;;;;23.80;34.30;;;;;;5072546;28;20411;-59
2024/03/31 05:57:34;;;;;;;;;;;23.80;34.10;;;;;;5072790;28;19928;-60
2024/03/31 06:00:00;;;;;;;;;;;23.80;34.00;;;;;;5072256;28;19924;-59
2024/03/31 06:02:25;;;;;;;;;;;23.80;33.90;;;;;;5072263;28;19929;-59
2024/03/31 06:04:51;;;;;;;;;;;23.80;33.90;;;;;;5072247;28;19930;-60
2024/03/31 06:07:17;;;;;;;;;;;23.90;33.80;;;;;;5072320;28;20305;-59
2024/03/31 06:09:44;;;;;;;;;;;23.80;33.70;;;;;;5072287;28;19931;-60
2024/03/31 06:12:10;;;;;;;;;;;23.90;33.70;;;;;;5072189;28;19924;-62
2024/03/31 06:14:36;;;;;;;;;;;23.90;33.60;;;;;;5072227;28;19932;-62
2024/03/31 06:17:01;;;;;;;;;;;23.90;33.60;;;;;;5072541;28;20007;-60
2024/03/31 06:19:27;;;;;;;;;;;23.90;33.50;;;;;;5071930;28;19925;-63
2024/03/31 06:21:53;;;;;;;;;;;23.90;33.40;;;;;;5072103;28;19990;-59
2024/03/31 06:24:19;;;;;;;;;;;23.90;33.30;;;;;;5071944;28;19925;-62
2024/03/31 06:26:45;;;;;;;;;;;24.00;33.30;;;;;;5072084;28;19924;-61
2024/03/31 06:29:11;;;;;;;;;;;24.00;33.10;;;;;;5072125;28;19936;-67
2024/03/31 06:31:38;;;;;;;;;;;24.10;33.10;;;;;;5071962;28;19924;-64
2024/03/31 06:34:04;;;;;;;;;;;24.10;33.00;;;;;;5071994;28;19935;-64
2024/03/31 06:36:30;;;;;;;;;;;24.10;32.90;;;;;;5072280;28;19924;-60
2024/03/31 06:38:56;;;;;;;;;;;24.20;32.90;;;;;;5071908;28;19932;-60
2024/03/31 06:41:22;;;;;;;;;;;24.20;32.80;;;;;;5072154;28;19928;-60
2024/03/31 06:43:48;;;;;;;;;;;24.30;32.90;;;;;;5072096;28;19928;-59
2024/03/31 06:46:14;;;;;;;;;;;24.30;32.70;;;;;;5072095;28;20427;-60
2024/03/31 06:48:40;;;;;;;;;;;24.40;32.60;;;;;;5072109;28;20374;-60
2024/03/31 06:51:06;;;;;;;;;;;24.40;32.50;;;;;;5071886;28;20370;-60
2024/03/31 06:53:31;;;;;;;;;;;24.50;32.50;;;;;;5071877;28;19925;-60
2024/03/31 06:55:57;;;;;;;;;;;24.50;32.40;;;;;;5072058;28;19924;-60
2024/03/31 06:58:23;;;;;;;;;;;24.50;32.20;;;;;;5072143;28;19994;-57
2024/03/31 07:00:49;;;;;;;;;;;24.50;32.20;;;;;;5039661;28;20435;-57
2024/03/31 07:03:15;;;;;;;;;;;24.60;32.10;;;;;;5051505;28;19924;-58
2024/03/31 07:05:41;;;;;;;;;;;24.60;32.00;;;;;;5052006;28;19936;-57
2024/03/31 07:08:06;;;;;;;;;;;24.60;31.90;;;;;;5051930;28;19925;-57
2024/03/31 07:10:32;;;;;;;;;;;24.60;31.90;;;;;;5051633;28;19932;-57
2024/03/31 07:12:58;;;;;;;;;;;24.70;32.00;;;;;;5069299;28;19931;-57
2024/03/31 07:15:24;;;;;;;;;;;24.70;32.00;;;;;;5060027;28;19924;-57
2024/03/31 07:17:50;;;;;;;;;;;24.70;31.90;;;;;;5067378;28;19928;-57
2024/03/31 07:20:17;;;;;;;;;;;24.70;31.80;;;;;;5061304;28;19932;-57
2024/03/31 07:22:43;;;;;;;;;;;24.80;31.90;;;;;;5061345;28;19979;-57
2024/03/31 07:25:09;;;;;;;;;;;24.80;31.80;;;;;;5067036;28;19932;-58
2024/03/31 07:27:35;;;;;;;;;;;24.80;31.80;;;;;;5057713;28;19979;-57
2024/03/31 07:30:00;;;;;;;;;;;24.80;31.80;;;;;;5062941;28;19931;-57
2024/03/31 07:32:26;;;;;;;;;;;24.80;31.60;;;;;;5063600;28;19931;-58
2024/03/31 07:34:52;;;;;;;;;;;24.90;31.70;;;;;;5061144;28;20358;-58
2024/03/31 07:37:18;;;;;;;;;;;24.90;31.60;;;;;;5065433;28;19933;-57
2024/03/31 07:39:44;;;;;;;;;;;24.90;31.70;;;;;;5059500;28;20325;-57
2024/03/31 07:42:10;;;;;;;;;;;24.90;31.60;;;;;;5065542;28;20393;-57
2024/03/31 07:44:36;;;;;;;;;;;25.00;31.60;;;;;;5061631;28;20335;-57
2024/03/31 07:47:01;;;;;;;;;;;25.00;31.60;;;;;;5072751;28;20281;-58
2024/03/31 07:49:27;;;;;;;;;;;25.00;31.60;;;;;;5073619;28;20320;-57
2024/03/31 07:51:53;;;;;;;;;;;25.00;31.60;;;;;;5057588;28;19924;-57
2024/03/31 07:54:19;;;;;;;;;;;25.10;31.50;;;;;;5074797;28;20417;-57
2024/03/31 07:56:45;;;;;;;;;;;25.10;31.50;;;;;;5073153;28;19925;-57
2024/03/31 07:59:11;;;;;;;;;;;25.10;31.50;;;;;;5054644;28;19952;-57
2024/03/31 08:01:36;;;;;;;;;;;25.20;31.50;;;;;;5072553;28;19975;-57
2024/03/31 08:04:03;;;;;;;;;;;25.20;31.40;;;;;;5071532;28;19924;-57
2024/03/31 08:06:28;;;;;;;;;;;25.20;31.40;;;;;;5064884;28;19924;-57
2024/03/31 08:08:54;;;;;;;;;;;25.30;31.30;;;;;;5066342;28;19994;-57
2024/03/31 08:11:20;;;;;;;;;;;25.30;31.30;;;;;;5074684;28;20293;-57
2024/03/31 08:13:46;;;;;;;;;;;25.40;31.30;;;;;;5072379;28;19982;-57
2024/03/31 08:16:12;;;;;;;;;;;25.40;31.10;;;;;;5074644;28;19928;-58
2024/03/31 08:18:42;;;;;;;;;;;25.40;31.10;;;;;;5073098;28;20378;-57
2024/03/31 08:21:09;;;;;;;;;;;25.40;31.00;;;;;;5064465;28;19924;-57
2024/03/31 08:23:35;;;;;;;;;;;25.40;31.00;;;;;;5053958;28;20373;-57
2024/03/31 08:26:01;;;;;;;;;;;25.40;30.90;;;;;;5054494;28;20034;-57
2024/03/31 08:28:27;;;;;;;;;;;25.50;31.00;;;;;;5054506;28;19932;-57
2024/03/31 08:30:53;;;;;;;;;;;25.50;31.00;;;;;;5054056;28;20279;-57
2024/03/31 08:33:19;;;;;;;;;;;25.50;30.90;;;;;;5054033;28;20352;-57
2024/03/31 08:35:51;;;;;;;;;;;25.50;30.80;;;;;;5038842;28;19940;-57
2024/03/31 08:38:17;;;;;;;;;;;25.50;30.80;;;;;;5074342;28;19925;-57
2024/03/31 08:40:46;;;;;;;;;;;25.50;30.80;;;;;;5073957;28;19924;-57
2024/03/31 08:43:18;;;;;;;;;;;25.60;30.80;;;;;;5074045;28;19924;-58
2024/03/31 08:45:44;;;;;;;;;;;25.60;30.70;;;;;;5073545;28;19929;-57
2024/03/31 08:48:11;;;;;;;;;;;25.70;30.70;;;;;;5073917;28;19928;-57
2024/03/31 08:50:38;;;;;;;;;;;25.70;30.60;;;;;;5073440;28;19924;-58
2024/03/31 08:53:04;;;;;;;;;;;25.70;30.60;;;;;;5056957;28;19932;-57
2024/03/31 08:55:30;;;;;;;;;;;25.70;30.50;;;;;;5073937;28;19925;-57
2024/03/31 08:57:56;;;;;;;;;;;25.70;30.50;;;;;;5073724;28;19936;-57
2024/03/31 09:00:22;;;;;;;;;;;25.80;30.40;;;;;;5073531;28;19977;-57
2024/03/31 09:02:47;;;;;;;;;;;25.80;30.40;;;;;;5073379;28;19924;-58
2024/03/31 09:05:13;;;;;;;;;;;25.90;30.40;;;;;;5073261;28;19935;-57
2024/03/31 09:07:39;;;;;;;;;;;25.90;30.40;;;;;;5073222;28;19925;-57
2024/03/31 09:10:05;;;;;;;;;;;25.90;30.30;;;;;;5073363;28;19931;-57
2024/03/31 09:12:31;;;;;;;;;;;25.90;30.30;;;;;;5073092;28;19925;-57
2024/03/31 09:14:59;;;;;;;;;;;26.00;30.30;;;;;;5073257;28;19925;-57
2024/03/31 09:17:25;;;;;;;;;;;26.00;30.20;;;;;;5073174;28;20438;-58
2024/03/31 09:19:51;;;;;;;;;;;26.10;30.20;;;;;;5073222;28;19924;-57
2024/03/31 09:22:17;;;;;;;;;;;26.10;30.20;;;;;;5072981;28;20381;-57
2024/03/31 09:24:43;;;;;;;;;;;26.10;30.00;;;;;;5073030;28;19978;-57
2024/03/31 09:27:09;;;;;;;;;;;26.20;30.00;;;;;;5072967;28;20377;-58
2024/03/31 09:29:39;;;;;;;;;;;26.20;30.00;;;;;;5073255;28;19931;-57
2024/03/31 09:32:12;;;;;;;;;;;26.20;29.90;;;;;;5073162;28;20270;-57
2024/03/31 09:34:45;;;;;;;;;;;26.30;29.90;;;;;;5072885;28;19925;-58
2024/03/31 09:37:11;;;;;;;;;;;26.30;29.90;;;;;;5073197;28;19924;-57
2024/03/31 09:39:37;;;;;;;;;;;26.40;30.00;;;;;;5072273;28;19925;-57
2024/03/31 09:42:05;;;;;;;;;;;26.40;29.90;;;;;;5072730;28;19924;-58
2024/03/31 09:44:32;;;;;;;;;;;26.40;29.80;;;;;;5072757;28;19925;-57
2024/03/31 09:46:57;;;;;;;;;;;26.40;29.80;;;;;;5072468;28;19950;-57
2024/03/31 09:49:27;;;;;;;;;;;26.50;29.80;;;;;;5072738;28;19933;-58
2024/03/31 09:51:54;;;;;;;;;;;26.50;29.70;;;;;;5072643;28;19947;-57
2024/03/31 09:54:22;;;;;;;;;;;26.50;29.70;;;;;;5072491;28;19924;-58
2024/03/31 09:57:02;;;;;;;;;;;26.50;29.70;;;;;;5072476;28;19925;-58
2024/03/31 09:59:29;;;;;;;;;;;26.50;29.70;;;;;;5072659;28;20344;-57
2024/03/31 10:01:55;;;;;;;;;;;26.50;29.70;;;;;;5071961;28;19924;-57
2024/03/31 10:04:31;;;;;;;;;;;26.50;29.70;;;;;;5072423;28;19929;-57
2024/03/31 10:06:58;;;;;;;;;;;26.50;29.60;;;;;;5072718;28;19932;-57
2024/03/31 10:09:24;;;;;;;;;;;26.60;29.70;;;;;;5072326;28;19974;-57
2024/03/31 10:11:52;;;;;;;;;;;26.50;29.60;;;;;;5071756;28;19932;-57
2024/03/31 10:14:19;;;;;;;;;;;26.50;29.60;;;;;;5072361;28;19924;-57
2024/03/31 10:16:46;;;;;;;;;;;26.60;29.60;;;;;;5071958;28;19932;-57
2024/03/31 10:19:12;;;;;;;;;;;26.60;29.60;;;;;;5072569;28;19924;-57
2024/03/31 10:21:39;;;;;;;;;;;26.60;29.60;;;;;;5071871;28;19931;-57
2024/03/31 10:24:05;;;;;;;;;;;26.60;29.60;;;;;;5072201;28;19931;-58
2024/03/31 10:26:32;;;;;;;;;;;26.60;29.60;;;;;;5072390;28;20281;-57
2024/03/31 10:28:58;;;;;;;;;;;26.60;29.60;;;;;;5072170;28;19924;-57
2024/03/31 10:31:24;;;;;;;;;;;26.60;29.50;;;;;;5071972;28;19928;-57
2024/03/31 10:33:50;;;;;;;;;;;26.60;29.50;;;;;;5072262;28;19924;-57
2024/03/31 10:36:16;;;;;;;;;;;26.60;29.50;;;;;;5072218;28;20358;-57
2024/03/31 10:38:43;;;;;;;;;;;26.70;29.50;;;;;;5072085;28;19924;-57
2024/03/31 10:41:12;;;;;;;;;;;26.70;29.40;;;;;;5071911;28;19931;-58
2024/03/31 10:43:38;;;;;;;;;;;26.70;29.40;;;;;;5072045;28;20337;-57
2024/03/31 10:46:04;;;;;;;;;;;26.70;29.40;;;;;;5072242;28;19928;-57
2024/03/31 10:48:30;;;;;;;;;;;26.80;29.40;;;;;;5071978;28;19970;-57
2024/03/31 10:50:57;;;;;;;;;;;26.80;29.40;;;;;;5072240;28;19928;-57
2024/03/31 10:53:26;;;;;;;;;;;26.80;29.40;;;;;;5072135;28;19932;-58
2024/03/31 10:55:52;;;;;;;;;;;26.80;29.30;;;;;;5071677;28;19924;-57
2024/03/31 10:58:18;;;;;;;;;;;26.80;29.30;;;;;;5071977;28;19925;-57
2024/03/31 11:00:44;;;;;;;;;;;26.80;29.30;;;;;;5072116;28;19929;-57
2024/03/31 11:03:10;;;;;;;;;;;26.80;29.30;;;;;;5072112;28;19924;-57
2024/03/31 11:05:39;;;;;;;;;;;26.80;29.30;;;;;;5071555;28;19924;-57
2024/03/31 11:08:07;;;;;;;;;;;26.80;29.30;;;;;;5072086;28;19925;-57
2024/03/31 11:10:34;;;;;;;;;;;26.80;29.30;;;;;;5072151;28;19978;-57
2024/03/31 11:13:01;;;;;;;;;;;26.80;29.30;;;;;;5072755;28;19931;-57
2024/03/31 11:15:27;;;;;;;;;;;26.80;29.30;;;;;;5075863;28;19931;-57
2024/03/31 11:17:53;;;;;;;;;;;26.80;29.30;;;;;;5075456;28;20289;-57
2024/03/31 11:20:19;;;;;;;;;;;26.80;29.30;;;;;;5075324;28;20216;-57
2024/03/31 11:22:45;;;;;;;;;;;26.80;29.30;;;;;;5075330;28;19928;-57
2024/03/31 11:25:11;;;;;;;;;;;26.80;29.30;;;;;;5075321;28;20409;-57
2024/03/31 11:27:38;;;;;;;;;;;26.80;29.30;;;;;;5075489;28;19924;-57
2024/03/31 11:30:04;;;;;;;;;;;26.80;29.30;;;;;;5075342;28;20428;-57
2024/03/31 11:32:30;;;;;;;;;;;26.80;29.20;;;;;;5075509;28;19924;-57
2024/03/31 11:34:56;;;;;;;;;;;26.90;29.30;;;;;;5075138;28;19977;-57
2024/03/31 11:37:21;;;;;;;;;;;26.90;29.20;;;;;;5075471;28;20027;-57
2024/03/31 11:39:47;;;;;;;;;;;26.90;29.20;;;;;;5075184;28;20366;-57
2024/03/31 11:42:14;;;;;;;;;;;26.90;29.10;;;;;;5074972;28;20400;-57
2024/03/31 11:44:40;;;;;;;;;;;27.00;29.10;;;;;;5075004;28;20397;-57
2024/03/31 11:47:06;;;;;;;;;;;27.10;29.10;;;;;;5074985;28;20374;-57
2024/03/31 11:49:33;;;;;;;;;;;27.10;29.00;;;;;;5075085;28;19925;-57
2024/03/31 11:51:59;;;;;;;;;;;27.10;29.00;;;;;;5074739;28;20317;-57
2024/03/31 11:54:26;;;;;;;;;;;27.10;29.00;;;;;;5074832;28;19932;-57
2024/03/31 11:56:52;;;;;;;;;;;27.10;29.00;;;;;;5075033;28;19924;-57
2024/03/31 11:59:19;;;;;;;;;;;27.10;29.10;;;;;;5074731;28;19928;-57
2024/03/31 12:01:46;;;;;;;;;;;27.10;29.00;;;;;;5074495;28;19931;-57
2024/03/31 12:04:15;;;;;;;;;;;27.00;29.00;;;;;;5074649;28;19925;-57
2024/03/31 12:06:41;;;;;;;;;;;27.10;29.00;;;;;;5074942;28;19925;-57
2024/03/31 12:09:08;;;;;;;;;;;27.10;29.00;;;;;;5074919;28;19925;-57
2024/03/31 12:11:34;;;;;;;;;;;27.10;29.00;;;;;;5074348;28;19956;-59
2024/03/31 12:14:00;;;;;;;;;;;27.10;29.00;;;;;;5074680;28;19924;-57
2024/03/31 12:16:26;;;;;;;;;;;27.20;28.90;;;;;;5074300;28;20015;-57
2024/03/31 12:18:52;;;;;;;;;;;27.20;28.90;;;;;;5074704;28;19931;-57
2024/03/31 12:21:22;;;;;;;;;;;27.30;28.90;;;;;;5074116;28;20285;-57
2024/03/31 12:23:48;;;;;;;;;;;27.30;28.90;;;;;;5073837;28;19929;-57
2024/03/31 12:26:16;;;;;;;;;;;27.20;28.80;;;;;;5073620;28;19970;-57
2024/03/31 12:28:42;;;;;;;;;;;27.30;28.90;;;;;;5074267;28;19924;-59
2024/03/31 12:31:08;;;;;;;;;;;27.20;28.80;;;;;;5074429;28;19967;-59
2024/03/31 12:33:34;;;;;;;;;;;27.30;28.90;;;;;;5074019;28;19935;-59
2024/03/31 12:36:00;;;;;;;;;;;27.30;28.90;;;;;;5074208;28;19929;-59
2024/03/31 12:38:26;;;;;;;;;;;27.20;28.80;;;;;;5057400;28;19978;-60
2024/03/31 12:40:56;;;;;;;;;;;27.20;28.90;;;;;;5074288;28;19924;-60
2024/03/31 12:43:22;;;;;;;;;;;27.20;28.90;;;;;;5074035;28;19932;-60
2024/03/31 12:45:48;;;;;;;;;;;27.20;28.90;;;;;;5073857;28;19928;-57
2024/03/31 12:48:14;;;;;;;;;;;27.20;28.90;;;;;;5074219;28;19929;-57
2024/03/31 12:50:47;;;;;;;;;;;27.20;28.90;;;;;;5074408;28;19924;-58
2024/03/31 12:53:13;;;;;;;;;;;27.20;28.90;;;;;;5073640;28;19925;-57
2024/03/31 12:55:39;;;;;;;;;;;27.20;28.90;;;;;;5073854;28;19960;-57
2024/03/31 12:58:05;;;;;;;;;;;27.20;28.90;;;;;;5057069;28;19931;-57
2024/03/31 13:00:31;;;;;;;;;;;27.20;28.80;;;;;;5073543;28;19925;-57
2024/03/31 13:02:57;;;;;;;;;;;27.20;28.80;;;;;;5073378;28;19978;-57
2024/03/31 13:05:25;;;;;;;;;;;27.20;28.80;;;;;;5073126;28;19925;-57
2024/03/31 13:07:51;;;;;;;;;;;27.20;28.80;;;;;;5072895;28;19925;-58
2024/03/31 13:10:17;;;;;;;;;;;27.20;28.80;;;;;;5073463;28;20390;-57
2024/03/31 13:12:43;;;;;;;;;;;27.20;28.80;;;;;;5073542;28;19968;-57
2024/03/31 13:15:08;;;;;;;;;;;27.20;28.80;;;;;;5073227;28;20300;-57
2024/03/31 13:17:34;;;;;;;;;;;27.20;28.80;;;;;;5073491;28;19936;-57
2024/03/31 13:20:00;;;;;;;;;;;27.20;28.90;;;;;;5073236;28;20282;-57
2024/03/31 13:22:26;;;;;;;;;;;27.20;28.90;;;;;;5073222;28;20366;-57
2024/03/31 13:24:52;;;;;;;;;;;27.20;28.90;;;;;;5073144;28;20386;-57
2024/03/31 13:27:18;;;;;;;;;;;27.20;28.80;;;;;;5073298;28;19925;-57
2024/03/31 13:29:44;;;;;;;;;;;27.20;28.90;;;;;;5072917;28;20404;-57
2024/03/31 13:32:10;;;;;;;;;;;27.20;29.30;;;;;;5073184;28;20109;-57
2024/03/31 13:34:36;;;;;;;;;;;27.20;28.80;;;;;;5072840;28;20285;-57
2024/03/31 13:37:02;;;;;;;;;;;27.20;28.80;;;;;;5071973;28;20408;-57
2024/03/31 13:39:28;;;;;;;;;;;27.20;28.80;;;;;;5072738;28;19925;-57
2024/03/31 13:41:54;;;;;;;;;;;27.20;28.90;;;;;;5072831;28;19939;-57
2024/03/31 13:44:20;;;;;;;;;;;27.10;28.90;;;;;;5068800;28;19940;-57
2024/03/31 13:46:46;;;;;;;;;;;27.10;29.30;;;;;;5064563;28;19925;-57
2024/03/31 13:49:12;;;;;;;;;;;27.10;29.00;;;;;;5055715;28;20290;-57
2024/03/31 13:51:37;;;;;;;;;;;27.00;29.00;;;;;;5052369;28;19931;-58
2024/03/31 13:54:03;;;;;;;;;;;27.10;29.10;;;;;;5065080;28;19925;-57
2024/03/31 13:56:29;;;;;;;;;;;27.10;29.20;;;;;;5072310;28;20385;-57
2024/03/31 13:58:55;;;;;;;;;;;27.10;29.30;;;;;;5072437;28;19924;-57
2024/03/31 14:01:21;;;;;;;;;;;27.10;29.10;;;;;;5072730;28;20015;-57
2024/03/31 14:03:47;;;;;;;;;;;27.10;29.10;;;;;;5072038;28;19928;-57
2024/03/31 14:06:13;;;;;;;;;;;27.20;29.00;;;;;;5055938;28;20019;-57
2024/03/31 14:08:39;;;;;;;;;;;27.20;29.00;;;;;;5072440;28;19924;-57
2024/03/31 14:11:04;;;;;;;;;;;27.20;29.00;;;;;;5072541;28;19930;-57